Time;durP1;ratioP1;P1;durP2;ratioP2;P2;SDS_P1;SDS_P2;PMS_P1;PMS_P2;Temp;Humidity;BMP_temperature;BMP_pressure;BME280_temperature;BME280_humidity;BME280_pressure;Samples;Min_cycle;Max_cycle;Signal;HPM_P1;HPM_P2
2023/06/29 00:01:33;;;;;;;4.68;4.28;;;;;;;;;;7305732;19;142618;-78
2023/06/29 00:04:01;;;;;;;5.30;4.80;;;;;;;;;;7304035;19;140702;-79
2023/06/29 00:06:31;;;;;;;5.97;4.40;;;;;;;;;;7305893;19;140651;-77
2023/06/29 00:08:59;;;;;;;5.65;4.55;;;;;;;;;;7306461;19;141257;-77
2023/06/29 00:11:26;;;;;;;5.32;4.60;;;;;;;;;;7303529;19;142442;-77
2023/06/29 00:13:53;;;;;;;4.93;4.40;;;;;;;;;;7305394;19;140751;-78
2023/06/29 00:16:20;;;;;;;5.20;4.30;;;;;;;;;;7305212;19;140503;-78
2023/06/29 00:18:48;;;;;;;5.40;4.90;;;;;;;;;;7305096;19;140641;-78
2023/06/29 00:21:16;;;;;;;5.28;4.70;;;;;;;;;;7303464;19;142443;-78
2023/06/29 00:23:45;;;;;;;5.20;4.68;;;;;;;;;;7303139;19;140544;-79
2023/06/29 00:26:16;;;;;;;5.32;4.50;;;;;;;;;;7304037;19;140579;-79
2023/06/29 00:28:43;;;;;;;5.50;4.72;;;;;;;;;;7303502;19;141390;-78
2023/06/29 00:31:10;;;;;;;5.80;4.63;;;;;;;;;;7304766;19;141998;-78
2023/06/29 00:33:37;;;;;;;5.20;4.70;;;;;;;;;;7303700;19;140955;-79
2023/06/29 00:36:11;;;;;;;5.47;4.80;;;;;;;;;;7305045;19;140586;-78
2023/06/29 00:38:38;;;;;;;5.30;4.78;;;;;;;;;;7303474;19;141439;-78
2023/06/29 00:41:18;;;;;;;6.38;4.90;;;;;;;;;;7297785;19;142156;-78
2023/06/29 00:43:48;;;;;;;5.43;4.90;;;;;;;;;;7303558;19;140551;-79
2023/06/29 00:46:18;;;;;;;5.70;4.60;;;;;;;;;;7301626;19;140535;-79
2023/06/29 00:48:47;;;;;;;5.13;4.63;;;;;;;;;;7304194;19;142021;-79
2023/06/29 00:51:16;;;;;;;5.40;4.90;;;;;;;;;;7303101;19;142297;-78
2023/06/29 00:53:43;;;;;;;7.25;4.70;;;;;;;;;;7304594;19;140409;-79
2023/06/29 00:56:11;;;;;;;5.30;4.82;;;;;;;;;;7304445;19;140551;-78
2023/06/29 00:58:38;;;;;;;5.22;4.72;;;;;;;;;;7303293;19;142131;-79
2023/06/29 01:01:07;;;;;;;5.20;4.50;;;;;;;;;;7303687;19;143330;-79
2023/06/29 01:03:36;;;;;;;4.88;4.32;;;;;;;;;;7303843;19;140440;-79
2023/06/29 01:06:09;;;;;;;6.72;5.00;;;;;;;;;;7302745;19;140711;-78
2023/06/29 01:08:42;;;;;;;5.15;4.63;;;;;;;;;;7302744;19;140506;-78
2023/06/29 01:11:10;;;;;;;5.97;4.57;;;;;;;;;;7302046;19;142476;-77
2023/06/29 01:13:40;;;;;;;5.10;4.60;;;;;;;;;;7303918;19;140349;-78
2023/06/29 01:16:08;;;;;;;4.93;4.30;;;;;;;;;;7303160;19;140910;-77
2023/06/29 01:18:37;;;;;;;4.82;4.43;;;;;;;;;;7303494;19;141571;-78
2023/06/29 01:21:04;;;;;;;4.85;4.40;;;;;;;;;;7303627;19;142040;-78
2023/06/29 01:23:36;;;;;;;5.32;4.15;;;;;;;;;;7302714;19;140524;-78
2023/06/29 01:26:05;;;;;;;4.82;4.43;;;;;;;;;;7302513;19;140655;-78
2023/06/29 01:28:38;;;;;;;4.90;4.40;;;;;;;;;;7303188;19;141247;-77
2023/06/29 01:31:05;;;;;;;6.15;4.82;;;;;;;;;;7304180;19;140758;-76
2023/06/29 01:33:33;;;;;;;4.85;4.35;;;;;;;;;;7303790;19;140539;-78
2023/06/29 01:36:08;;;;;;;5.45;4.38;;;;;;;;;;7302596;19;140788;-79
2023/06/29 01:38:47;;;;;;;4.28;3.88;;;;;;;;;;7302315;19;142332;-79
2023/06/29 01:41:25;;;;;;;5.38;4.40;;;;;;;;;;7300382;19;141046;-80
2023/06/29 01:43:52;;;;;;;4.88;4.18;;;;;;;;;;7303519;19;140520;-79
2023/06/29 01:46:21;;;;;;;4.35;3.95;;;;;;;;;;7302807;19;140724;-80
2023/06/29 01:48:49;;;;;;;4.50;4.10;;;;;;;;;;7300403;19;141366;-80
2023/06/29 01:51:17;;;;;;;4.63;3.95;;;;;;;;;;7302227;19;141754;-81
2023/06/29 01:53:49;;;;;;;5.32;4.20;;;;;;;;;;7299951;19;140681;-79
2023/06/29 01:56:17;;;;;;;4.25;3.85;;;;;;;;;;7304544;19;140398;-79
2023/06/29 01:58:44;;;;;;;5.50;4.07;;;;;;;;;;7302182;19;141230;-79
2023/06/29 02:01:11;;;;;;;4.43;4.03;;;;;;;;;;7298081;19;140747;-79
2023/06/29 02:03:51;;;;;;;4.40;4.00;;;;;;;;;;7303446;19;140502;-78
2023/06/29 02:06:18;;;;;;;4.30;3.90;;;;;;;;;;7300317;19;140796;-79
2023/06/29 02:08:45;;;;;;;4.10;3.70;;;;;;;;;;7300926;19;142457;-79
2023/06/29 02:11:13;;;;;;;4.25;3.85;;;;;;;;;;7302416;19;141863;-77
2023/06/29 02:13:40;;;;;;;4.35;3.53;;;;;;;;;;7302163;19;140491;-78
2023/06/29 02:16:07;;;;;;;4.22;3.83;;;;;;;;;;7303211;19;140686;-78
2023/06/29 02:18:34;;;;;;;4.22;3.80;;;;;;;;;;7299685;19;142255;-78
2023/06/29 02:21:01;;;;;;;4.93;3.92;;;;;;;;;;7301831;19;141063;-79
2023/06/29 02:23:29;;;;;;;4.38;3.88;;;;;;;;;;7301523;19;140453;-78
2023/06/29 02:25:56;;;;;;;3.67;3.38;;;;;;;;;;7301580;19;140745;-78
2023/06/29 02:28:23;;;;;;;3.60;3.30;;;;;;;;;;7301371;19;141734;-77
2023/06/29 02:30:50;;;;;;;4.50;3.80;;;;;;;;;;7301726;19;142448;-78
2023/06/29 02:33:17;;;;;;;3.60;3.30;;;;;;;;;;7297474;19;140563;-77
2023/06/29 02:35:45;;;;;;;3.88;3.28;;;;;;;;;;7300011;19;140509;-77
2023/06/29 02:38:14;;;;;;;3.80;3.38;;;;;;;;;;7298856;19;140956;-77
2023/06/29 02:40:50;;;;;;;4.13;3.20;;;;;;;;;;7300120;19;141532;-78
2023/06/29 02:43:17;;;;;;;3.85;3.45;;;;;;;;;;7301459;19;140597;-78
2023/06/29 02:45:45;;;;;;;4.47;3.60;;;;;;;;;;7301559;19;140591;-78
2023/06/29 02:48:12;;;;;;;3.65;3.25;;;;;;;;;;7307253;19;141562;-78
2023/06/29 02:50:40;;;;;;;3.95;3.55;;;;;;;;;;7307716;19;142588;-78
2023/06/29 02:53:07;;;;;;;3.95;3.55;;;;;;;;;;7308476;19;140616;-78
2023/06/29 02:55:34;;;;;;;4.05;3.22;;;;;;;;;;7308481;19;140813;-77
2023/06/29 02:58:01;;;;;;;3.55;3.22;;;;;;;;;;7309320;19;140357;-77
2023/06/29 03:00:28;;;;;;;3.67;3.30;;;;;;;;;;7305330;19;141952;-78
2023/06/29 03:02:56;;;;;;;3.85;3.30;;;;;;;;;;7308730;19;140608;-78
2023/06/29 03:05:24;;;;;;;3.47;3.17;;;;;;;;;;7308072;19;140663;-77
2023/06/29 03:07:52;;;;;;;3.30;3.00;;;;;;;;;;7307539;19;141889;-78
2023/06/29 03:10:21;;;;;;;3.30;3.00;;;;;;;;;;7309187;19;141210;-78
2023/06/29 03:12:48;;;;;;;4.70;3.00;;;;;;;;;;7308262;19;140691;-78
2023/06/29 03:15:15;;;;;;;3.10;2.90;;;;;;;;;;7307578;19;140594;-77
2023/06/29 03:17:49;;;;;;;3.95;3.20;;;;;;;;;;7304149;19;141469;-78
2023/06/29 03:20:17;;;;;;;3.38;3.03;;;;;;;;;;7305894;19;141792;-78
2023/06/29 03:22:47;;;;;;;3.10;2.80;;;;;;;;;;7307768;19;140498;-78
2023/06/29 03:25:14;;;;;;;3.60;3.30;;;;;;;;;;7307744;19;140766;-77
2023/06/29 03:27:42;;;;;;;3.40;3.10;;;;;;;;;;7305324;19;142293;-78
2023/06/29 03:30:14;;;;;;;3.65;2.90;;;;;;;;;;7304968;19;141835;-78
2023/06/29 03:32:43;;;;;;;3.70;3.28;;;;;;;;;;7307215;19;140718;-79
2023/06/29 03:35:10;;;;;;;3.50;3.20;;;;;;;;;;7305473;19;140388;-77
2023/06/29 03:37:38;;;;;;;3.05;2.67;;;;;;;;;;7305845;19;141382;-79
2023/06/29 03:40:06;;;;;;;3.30;2.85;;;;;;;;;;7306386;19;142936;-79
2023/06/29 03:42:33;;;;;;;3.70;2.90;;;;;;;;;;7306464;19;140511;-77
2023/06/29 03:45:00;;;;;;;3.28;2.88;;;;;;;;;;7306590;19;140477;-78
2023/06/29 03:47:27;;;;;;;3.95;3.17;;;;;;;;;;7296122;19;141584;-78
2023/06/29 03:49:55;;;;;;;3.60;2.97;;;;;;;;;;7304327;19;141865;-78
2023/06/29 03:52:22;;;;;;;3.63;2.80;;;;;;;;;;7304369;19;140794;-78
2023/06/29 03:54:50;;;;;;;3.08;2.78;;;;;;;;;;7306958;19;140428;-78
2023/06/29 03:57:17;;;;;;;3.08;2.42;;;;;;;;;;7305453;19;143758;-78
2023/06/29 03:59:44;;;;;;;4.60;2.63;;;;;;;;;;7305581;19;141863;-78
2023/06/29 04:02:12;;;;;;;4.10;2.80;;;;;;;;;;7305459;19;140519;-78
2023/06/29 04:04:39;;;;;;;3.42;2.67;;;;;;;;;;7306526;19;140624;-79
2023/06/29 04:07:06;;;;;;;3.47;2.90;;;;;;;;;;7304229;19;141665;-78
2023/06/29 04:09:34;;;;;;;3.25;2.92;;;;;;;;;;7305625;19;142035;-79
2023/06/29 04:12:01;;;;;;;3.30;2.55;;;;;;;;;;7305109;19;140539;-78
2023/06/29 04:14:28;;;;;;;2.90;2.60;;;;;;;;;;7299322;19;143125;-78
2023/06/29 04:17:23;;;;;;;4.22;2.63;;;;;;;;;;7298944;19;143223;-79
2023/06/29 04:19:50;;;;;;;3.65;2.15;;;;;;;;;;7305233;19;141863;-79
2023/06/29 04:22:17;;;;;;;2.72;2.53;;;;;;;;;;7305906;19;140663;-79
2023/06/29 04:24:45;;;;;;;3.03;2.78;;;;;;;;;;7306763;19;140650;-79
2023/06/29 04:27:12;;;;;;;2.60;2.30;;;;;;;;;;7316886;19;142008;-78
2023/06/29 04:29:41;;;;;;;3.30;2.50;;;;;;;;;;7333951;19;140705;-78
2023/06/29 04:32:08;;;;;;;3.47;2.53;;;;;;;;;;7334684;19;141075;-77
2023/06/29 04:34:35;;;;;;;3.20;2.90;;;;;;;;;;7330173;19;140316;-79
2023/06/29 04:37:03;;;;;;;3.17;2.88;;;;;;;;;;7333269;19;141427;-78
2023/06/29 04:39:30;;;;;;;2.88;2.67;;;;;;;;;;7315435;19;144882;-79
2023/06/29 04:42:04;;;;;;;2.80;2.60;;;;;;;;;;7305032;19;140889;-80
2023/06/29 04:44:39;;;;;;;3.97;2.45;;;;;;;;;;7303270;19;140645;-76
2023/06/29 04:47:07;;;;;;;2.45;2.22;;;;;;;;;;7305198;19;142334;-78
2023/06/29 04:49:52;;;;;;;3.13;2.90;;;;;;;;;;7304492;19;144009;-80
2023/06/29 04:52:20;;;;;;;3.08;2.33;;;;;;;;;;7305280;19;140533;-77
2023/06/29 04:54:53;;;;;;;4.18;2.80;;;;;;;;;;7303704;19;140830;-82
2023/06/29 04:57:31;;;;;;;4.07;3.00;;;;;;;;;;7302344;19;142786;-81
2023/06/29 04:59:59;;;;;;;3.42;2.65;;;;;;;;;;7304684;19;141676;-80
2023/06/29 05:02:35;;;;;;;2.97;2.60;;;;;;;;;;7304933;19;140357;-80
2023/06/29 05:05:02;;;;;;;4.55;2.72;;;;;;;;;;7304569;19;140432;-81
2023/06/29 05:07:30;;;;;;;3.20;2.60;;;;;;;;;;7303388;19;140914;-80
2023/06/29 05:09:58;;;;;;;3.10;2.80;;;;;;;;;;7303898;19;141205;-80
2023/06/29 05:12:35;;;;;;;3.28;2.97;;;;;;;;;;7304088;19;140444;-79
2023/06/29 05:15:04;;;;;;;3.42;2.80;;;;;;;;;;7303934;19;140558;-80
2023/06/29 05:17:31;;;;;;;3.10;2.60;;;;;;;;;;7299480;19;141849;-78
2023/06/29 05:20:01;;;;;;;2.90;2.60;;;;;;;;;;7303882;19;142503;-82
2023/06/29 05:22:37;;;;;;;3.63;2.53;;;;;;;;;;7303538;19;140497;-76
2023/06/29 05:25:04;;;;;;;2.97;2.67;;;;;;;;;;7302035;19;140705;-75
2023/06/29 05:27:35;;;;;;;4.07;2.55;;;;;;;;;;7304037;19;141377;-76
2023/06/29 05:30:03;;;;;;;3.03;2.72;;;;;;;;;;7302440;19;141471;-76
2023/06/29 05:32:32;;;;;;;2.90;2.63;;;;;;;;;;7302114;19;140584;-75
2023/06/29 05:35:00;;;;;;;3.03;2.50;;;;;;;;;;7302827;19;141212;-76
2023/06/29 05:37:33;;;;;;;3.83;2.63;;;;;;;;;;7302422;19;141235;-75
2023/06/29 05:40:00;;;;;;;3.70;2.97;;;;;;;;;;7301250;19;142807;-74
2023/06/29 05:42:27;;;;;;;3.10;2.72;;;;;;;;;;7301457;19;140608;-75
2023/06/29 05:45:02;;;;;;;3.17;2.85;;;;;;;;;;7299154;19;142765;-77
2023/06/29 05:47:29;;;;;;;3.80;2.40;;;;;;;;;;7300913;19;141385;-77
2023/06/29 05:49:56;;;;;;;5.05;2.67;;;;;;;;;;7299395;19;141678;-76
2023/06/29 05:52:24;;;;;;;3.13;2.67;;;;;;;;;;7302122;19;140967;-76
2023/06/29 05:54:51;;;;;;;5.47;2.83;;;;;;;;;;7302183;19;140565;-77
2023/06/29 05:57:18;;;;;;;3.03;2.67;;;;;;;;;;7301421;19;141288;-76
2023/06/29 05:59:45;;;;;;;2.70;2.50;;;;;;;;;;7302247;19;142021;-77
2023/06/29 06:02:22;;;;;;;2.90;2.60;;;;;;;;;;7301687;19;140509;-77
2023/06/29 06:04:49;;;;;;;3.83;2.60;;;;;;;;;;7302696;19;140670;-77
2023/06/29 06:07:27;;;;;;;4.13;2.83;;;;;;;;;;7301008;19;141810;-77
2023/06/29 06:09:56;;;;;;;2.80;2.60;;;;;;;;;;7301015;19;141267;-77
2023/06/29 06:12:23;;;;;;;3.17;2.90;;;;;;;;;;7302476;19;140687;-77
2023/06/29 06:14:51;;;;;;;4.82;2.70;;;;;;;;;;7302119;19;140806;-77
2023/06/29 06:17:18;;;;;;;4.15;2.70;;;;;;;;;;7297912;19;141609;-77
2023/06/29 06:19:46;;;;;;;3.15;2.85;;;;;;;;;;7299960;19;141658;-76
2023/06/29 06:22:14;;;;;;;5.07;2.60;;;;;;;;;;7304947;19;140655;-77
2023/06/29 06:24:42;;;;;;;3.17;2.70;;;;;;;;;;7309622;19;140607;-77
2023/06/29 06:27:10;;;;;;;2.67;2.40;;;;;;;;;;7307575;19;141471;-77
2023/06/29 06:29:37;;;;;;;2.90;2.60;;;;;;;;;;7309344;19;141398;-78
2023/06/29 06:32:04;;;;;;;3.20;2.78;;;;;;;;;;7307126;19;141106;-77
2023/06/29 06:34:33;;;;;;;2.83;2.55;;;;;;;;;;7306682;19;140610;-77
2023/06/29 06:37:00;;;;;;;4.07;2.83;;;;;;;;;;7306787;19;142181;-77
2023/06/29 06:39:32;;;;;;;3.03;2.75;;;;;;;;;;7307641;19;142704;-77
2023/06/29 06:42:00;;;;;;;3.55;2.80;;;;;;;;;;7307695;19;140386;-76
2023/06/29 06:44:27;;;;;;;2.88;2.60;;;;;;;;;;7308564;19;140602;-77
2023/06/29 06:46:57;;;;;;;3.28;2.72;;;;;;;;;;7307386;19;142584;-75
2023/06/29 06:49:25;;;;;;;4.18;3.25;;;;;;;;;;7308529;19;140795;-77
2023/06/29 06:51:52;;;;;;;3.97;2.88;;;;;;;;;;7307915;19;140537;-77
2023/06/29 06:54:20;;;;;;;2.75;2.55;;;;;;;;;;7307130;19;140577;-77
2023/06/29 06:56:48;;;;;;;3.20;2.90;;;;;;;;;;7307889;19;141981;-76
2023/06/29 06:59:15;;;;;;;4.32;2.70;;;;;;;;;;7307157;19;142698;-77
2023/06/29 07:01:43;;;;;;;3.05;2.67;;;;;;;;;;7308253;19;140440;-78
2023/06/29 07:04:11;;;;;;;4.55;3.10;;;;;;;;;;7307364;19;140686;-78
2023/06/29 07:06:38;;;;;;;3.05;2.60;;;;;;;;;;7306265;19;141452;-76
2023/06/29 07:09:07;;;;;;;4.05;3.00;;;;;;;;;;7306515;19;140832;-77
2023/06/29 07:11:37;;;;;;;2.90;2.70;;;;;;;;;;7307465;19;140599;-77
2023/06/29 07:14:04;;;;;;;3.17;2.70;;;;;;;;;;7306089;19;140447;-77
2023/06/29 07:16:32;;;;;;;3.17;2.88;;;;;;;;;;7306381;19;141032;-77
2023/06/29 07:19:12;;;;;;;3.92;2.83;;;;;;;;;;7308176;19;142494;-77
2023/06/29 07:21:42;;;;;;;3.08;2.60;;;;;;;;;;7305886;19;140584;-78
2023/06/29 07:24:30;;;;;;;3.65;2.60;;;;;;;;;;7306790;19;140953;-78
2023/06/29 07:26:58;;;;;;;3.08;2.80;;;;;;;;;;7306232;19;141282;-77
2023/06/29 07:29:30;;;;;;;3.10;2.83;;;;;;;;;;7306914;19;142947;-78
2023/06/29 07:31:57;;;;;;;5.07;3.00;;;;;;;;;;7307314;19;141032;-76
2023/06/29 07:34:25;;;;;;;3.92;2.83;;;;;;;;;;7304472;19;140611;-78
2023/06/29 07:36:52;;;;;;;4.30;3.03;;;;;;;;;;7306201;19;141295;-78
2023/06/29 07:39:19;;;;;;;4.82;3.30;;;;;;;;;;7306601;19;141882;-78
2023/06/29 07:41:48;;;;;;;4.15;2.95;;;;;;;;;;7306110;19;140747;-78
2023/06/29 07:47:26;;;;;;;3.80;2.97;;;;;;;;;;7300754;19;141993;-81
2023/06/29 07:49:53;;;;;;;7.03;3.80;;;;;;;;;;7303564;19;142082;-79
2023/06/29 07:52:22;;;;;;;6.13;3.60;;;;;;;;;;7305321;19;140663;-79
2023/06/29 07:54:50;;;;;;;4.13;3.22;;;;;;;;;;7305220;19;140729;-78
2023/06/29 07:57:18;;;;;;;4.88;3.10;;;;;;;;;;7305229;19;140721;-81
2023/06/29 07:59:48;;;;;;;3.05;2.75;;;;;;;;;;7305906;19;141345;-81
2023/06/29 08:02:15;;;;;;;5.53;3.42;;;;;;;;;;7304540;19;140529;-79
2023/06/29 08:04:43;;;;;;;4.28;3.17;;;;;;;;;;7297697;19;140928;-79
2023/06/29 08:07:13;;;;;;;4.55;3.30;;;;;;;;;;7304425;19;141707;-78
2023/06/29 08:09:41;;;;;;;5.80;3.78;;;;;;;;;;7305814;19;140838;-79
2023/06/29 08:12:08;;;;;;;5.60;4.00;;;;;;;;;;7306080;19;141017;-77
2023/06/29 08:14:37;;;;;;;5.47;4.28;;;;;;;;;;7303909;19;143421;-82
2023/06/29 08:17:07;;;;;;;4.97;3.80;;;;;;;;;;7305909;19;140990;-82
2023/06/29 08:20:52;;;;;;;9.35;4.75;;;;;;;;;;7301053;19;140725;-83
2023/06/29 08:23:21;;;;;;;7.72;4.13;;;;;;;;;;7305240;19;140507;-80
2023/06/29 08:25:49;;;;;;;7.18;4.38;;;;;;;;;;7306808;19;140705;-80
2023/06/29 08:28:17;;;;;;;7.70;4.45;;;;;;;;;;7303960;19;141242;-80
2023/06/29 08:30:45;;;;;;;8.93;4.55;;;;;;;;;;7300108;19;141377;-80
2023/06/29 08:36:41;;;;;;;7.20;4.07;;;;;;;;;;7295800;19;143609;-80
2023/06/29 08:39:09;;;;;;;6.68;4.50;;;;;;;;;;7300583;19;141636;-80
2023/06/29 08:41:36;;;;;;;5.95;4.25;;;;;;;;;;7297851;19;143550;-81
2023/06/29 08:51:34;;;;;;;7.65;4.13;;;;;;;;;;7301719;19;140633;-82
2023/06/29 08:54:04;;;;;;;6.00;4.70;;;;;;;;;;7299431;19;140832;-77
2023/06/29 08:56:33;;;;;;;4.72;4.10;;;;;;;;;;7299361;19;140681;-75
2023/06/29 08:59:05;;;;;;;5.57;3.92;;;;;;;;;;7294156;19;142919;-78
2023/06/29 09:01:33;;;;;;;6.07;4.28;;;;;;;;;;7299571;19;142981;-78
2023/06/29 09:04:01;;;;;;;7.47;3.97;;;;;;;;;;7303144;19;143342;-76
2023/06/29 09:06:30;;;;;;;7.68;3.90;;;;;;;;;;7300837;19;140786;-76
2023/06/29 09:08:57;;;;;;;6.15;3.58;;;;;;;;;;7303011;19;141296;-77
2023/06/29 09:11:24;;;;;;;5.82;3.42;;;;;;;;;;7301414;19;142288;-78
2023/06/29 09:13:53;;;;;;;5.75;3.40;;;;;;;;;;7303482;19;141471;-78
2023/06/29 09:16:21;;;;;;;4.15;3.55;;;;;;;;;;7302378;19;140855;-77
2023/06/29 09:18:54;;;;;;;7.45;3.72;;;;;;;;;;7303919;19;140719;-77
2023/06/29 09:21:23;;;;;;;4.80;3.70;;;;;;;;;;7301013;19;142555;-77
2023/06/29 09:23:50;;;;;;;5.85;3.80;;;;;;;;;;7303518;19;141736;-77
2023/06/29 09:26:18;;;;;;;5.32;3.53;;;;;;;;;;7302715;19;140480;-77
2023/06/29 09:28:45;;;;;;;5.43;3.22;;;;;;;;;;7303573;19;140784;-77
2023/06/29 09:31:13;;;;;;;5.53;3.22;;;;;;;;;;7303396;19;141412;-77
2023/06/29 09:33:41;;;;;;;5.38;3.17;;;;;;;;;;7301174;19;142771;-76
2023/06/29 09:36:08;;;;;;;5.35;3.42;;;;;;;;;;7303736;19;140660;-77
2023/06/29 09:38:36;;;;;;;5.13;3.45;;;;;;;;;;7302802;19;140660;-77
2023/06/29 09:41:06;;;;;;;5.38;3.50;;;;;;;;;;7302737;19;141315;-78
2023/06/29 09:43:34;;;;;;;6.20;3.80;;;;;;;;;;7301296;19;141925;-78
2023/06/29 09:46:08;;;;;;;4.45;3.20;;;;;;;;;;7301329;19;140724;-79
2023/06/29 09:48:54;;;;;;;3.92;3.03;;;;;;;;;;7302587;19;140770;-79
2023/06/29 09:51:24;;;;;;;3.75;2.92;;;;;;;;;;7302927;19;140586;-77
2023/06/29 09:53:52;;;;;;;5.35;3.30;;;;;;;;;;7301925;19;141875;-79
2023/06/29 09:56:19;;;;;;;3.55;3.00;;;;;;;;;;7305772;19;140452;-81
2023/06/29 09:58:47;;;;;;;4.78;3.10;;;;;;;;;;7310089;19;140527;-78
2023/06/29 10:01:16;;;;;;;5.20;3.55;;;;;;;;;;7308668;19;141085;-79
2023/06/29 10:03:48;;;;;;;5.35;2.88;;;;;;;;;;7307970;19;142861;-79
2023/06/29 10:06:42;;;;;;;4.30;2.88;;;;;;;;;;7307458;19;140647;-78
2023/06/29 10:09:13;;;;;;;5.05;3.08;;;;;;;;;;7308900;19;140403;-78
2023/06/29 10:11:42;;;;;;;3.70;2.80;;;;;;;;;;7309289;19;141865;-78
2023/06/29 10:14:18;;;;;;;3.38;2.90;;;;;;;;;;7308144;19;140914;-78
2023/06/29 10:16:48;;;;;;;5.40;3.10;;;;;;;;;;7309783;19;140420;-77
2023/06/29 10:19:20;;;;;;;3.60;2.85;;;;;;;;;;7308061;19;140583;-78
2023/06/29 10:21:53;;;;;;;4.93;3.28;;;;;;;;;;7307897;19;142024;-78
2023/06/29 10:24:26;;;;;;;5.72;2.75;;;;;;;;;;7305288;19;142303;-78
2023/06/29 10:26:55;;;;;;;3.90;2.83;;;;;;;;;;7309030;19;140875;-77
2023/06/29 10:29:23;;;;;;;3.45;2.97;;;;;;;;;;7309970;19;140726;-77
2023/06/29 10:31:58;;;;;;;3.22;2.70;;;;;;;;;;7307413;19;141791;-77
2023/06/29 10:34:28;;;;;;;5.05;3.10;;;;;;;;;;7308750;19;142075;-77
2023/06/29 10:36:59;;;;;;;3.50;2.90;;;;;;;;;;7308039;19;140984;-78
2023/06/29 10:39:42;;;;;;;3.92;2.80;;;;;;;;;;7306996;19;140539;-78
2023/06/29 10:42:37;;;;;;;4.40;2.95;;;;;;;;;;7308812;19;140385;-77
2023/06/29 10:45:09;;;;;;;4.30;3.20;;;;;;;;;;7307082;19;140902;-76
2023/06/29 10:47:39;;;;;;;3.45;2.80;;;;;;;;;;7308309;19;140352;-78
2023/06/29 10:50:10;;;;;;;4.22;2.92;;;;;;;;;;7306890;19;140854;-77
2023/06/29 10:52:38;;;;;;;;;;;;;;;;;;7308103;19;142044;-78
2023/06/29 10:55:25;;;;;;;4.78;2.83;;;;;;;;;;7309054;19;147670;-78
2023/06/29 10:57:59;;;;;;;4.35;2.78;;;;;;;;;;7322994;19;140427;-78
2023/06/29 11:00:32;;;;;;;3.95;2.65;;;;;;;;;;7337190;19;141554;-81
2023/06/29 11:03:19;;;;;;;3.28;2.92;;;;;;;;;;7313624;19;143644;-81
2023/06/29 11:05:53;;;;;;;3.75;2.90;;;;;;;;;;7321719;19;140007;-79
2023/06/29 11:08:30;;;;;;;3.50;2.47;;;;;;;;;;7334975;19;139990;-79
2023/06/29 11:11:13;;;;;;;3.72;3.13;;;;;;;;;;7317477;19;140642;-78
2023/06/29 11:13:49;;;;;;;3.88;2.78;;;;;;;;;;7307502;19;141292;-79
2023/06/29 11:16:31;;;;;;;4.93;2.75;;;;;;;;;;7308288;19;141465;-81
2023/06/29 11:19:02;;;;;;;3.55;2.50;;;;;;;;;;7301844;19;140897;-79
2023/06/29 11:21:45;;;;;;;;;;;;;;;;;;;;;
2023/06/29 11:27:46;;;;;;;4.20;2.75;;;;;;;;;;7309672;19;140653;-80
2023/06/29 11:36:55;;;;;;;5.13;3.25;;;;;;;;;;7287825;19;142074;31
2023/06/29 11:39:41;;;;;;;6.53;3.13;;;;;;;;;;7306200;19;140836;-80
2023/06/29 11:42:12;;;;;;;7.07;3.80;;;;;;;;;;7292611;19;140791;-78
2023/06/29 11:44:53;;;;;;;7.00;3.53;;;;;;;;;;7307269;19;140660;-80
2023/06/29 11:50:36;;;;;;;6.75;4.10;;;;;;;;;;7300673;19;142855;-80
2023/06/29 11:53:05;;;;;;;6.05;3.60;;;;;;;;;;7304542;19;140852;-79
2023/06/29 11:55:32;;;;;;;7.60;3.67;;;;;;;;;;7305305;19;140597;-79
2023/06/29 11:58:01;;;;;;;6.78;3.70;;;;;;;;;;7306580;19;140638;-80
2023/06/29 12:00:30;;;;;;;6.43;3.28;;;;;;;;;;7305792;19;142431;-82
2023/06/29 12:03:06;;;;;;;6.72;3.70;;;;;;;;;;7305260;19;140640;-79
2023/06/29 12:05:42;;;;;;;6.95;3.38;;;;;;;;;;7294937;19;140458;-78
2023/06/29 12:08:10;;;;;;;5.60;3.20;;;;;;;;;;7297848;19;142656;-79
2023/06/29 12:10:39;;;;;;;5.63;3.40;;;;;;;;;;7302807;19;140898;-79
2023/06/29 12:13:09;;;;;;;9.45;3.28;;;;;;;;;;7306162;19;140475;-78
2023/06/29 12:16:02;;;;;;;7.40;3.70;;;;;;;;;;7301626;19;140683;-79
2023/06/29 12:18:35;;;;;;;8.90;3.40;;;;;;;;;;7303788;19;140513;-80
2023/06/29 12:21:04;;;;;;;5.70;3.03;;;;;;;;;;7302054;19;141916;-80
2023/06/29 12:23:32;;;;;;;5.53;3.25;;;;;;;;;;7307202;19;140368;-77
2023/06/29 12:26:00;;;;;;;5.38;3.22;;;;;;;;;;7305268;19;140460;-78
2023/06/29 12:28:28;;;;;;;5.72;3.03;;;;;;;;;;7305526;19;140907;-79
2023/06/29 12:30:55;;;;;;;6.32;3.30;;;;;;;;;;7305147;19;141967;-79
2023/06/29 12:33:23;;;;;;;6.75;3.30;;;;;;;;;;7305768;19;140313;-79
2023/06/29 12:35:54;;;;;;;4.45;3.13;;;;;;;;;;7304042;19;140420;-79
2023/06/29 12:38:22;;;;;;;4.93;2.90;;;;;;;;;;7304408;19;140721;-78
2023/06/29 12:40:51;;;;;;;4.20;2.97;;;;;;;;;;7303598;19;141995;-78
2023/06/29 12:44:00;;;;;;;6.93;3.28;;;;;;;;;;7300618;19;140910;-78
2023/06/29 12:50:40;;;;;;;4.47;3.10;;;;;;;;;;7305774;19;142008;-82
2023/06/29 12:53:48;;;;;;;4.38;3.28;;;;;;;;;;7306116;19;143422;-82
2023/06/29 12:56:17;;;;;;;3.95;3.03;;;;;;;;;;7307230;19;140676;-83
2023/06/29 12:58:48;;;;;;;5.53;3.47;;;;;;;;;;7308051;19;140611;-83
2023/06/29 13:01:25;;;;;;;7.10;3.20;;;;;;;;;;7305075;19;141214;-82
2023/06/29 13:04:31;;;;;;;4.72;3.13;;;;;;;;;;7306523;19;140962;-82
2023/06/29 13:07:17;;;;;;;3.85;3.03;;;;;;;;;;7304780;19;141205;-82
2023/06/29 13:09:52;;;;;;;5.18;3.13;;;;;;;;;;7306743;19;140666;-82
2023/06/29 13:12:23;;;;;;;4.35;3.20;;;;;;;;;;7304255;19;141547;-78
2023/06/29 13:14:50;;;;;;;6.25;3.40;;;;;;;;;;7304731;19;141988;-76
2023/06/29 13:17:20;;;;;;;6.22;3.20;;;;;;;;;;7301368;19;140729;-75
2023/06/29 13:19:48;;;;;;;;;;;;;;;;;;7304294;19;140528;-76
2023/06/29 13:25:26;;;;;;;5.40;3.70;;;;;;;;;;7303729;19;141795;-75
2023/06/29 13:27:54;;;;;;;5.55;3.67;;;;;;;;;;7304091;19;141142;-75
2023/06/29 13:30:23;;;;;;;5.72;3.83;;;;;;;;;;7301797;19;141175;-77
2023/06/29 13:32:52;;;;;;;5.30;3.60;;;;;;;;;;7303048;19;141155;-76
2023/06/29 13:35:21;;;;;;;6.07;3.95;;;;;;;;;;7298548;19;140760;-77
2023/06/29 13:37:48;;;;;;;5.20;3.63;;;;;;;;;;7303110;19;140603;-75
2023/06/29 13:40:16;;;;;;;4.97;3.53;;;;;;;;;;7301117;19;140382;-79
2023/06/29 13:42:47;;;;;;;4.88;3.30;;;;;;;;;;7301472;19;161861;-79
2023/06/29 13:45:14;;;;;;;6.68;3.95;;;;;;;;;;7295626;19;142514;-79
2023/06/29 13:47:45;;;;;;;4.13;3.53;;;;;;;;;;7301672;19;140623;-80
2023/06/29 13:50:25;;;;;;;4.22;3.22;;;;;;;;;;7313873;19;140628;-79
2023/06/29 13:53:56;;;;;;;6.70;3.83;;;;;;;;;;7303362;19;140859;-80
2023/06/29 13:59:46;;;;;;;7.10;4.22;;;;;;;;;;7295868;19;141332;-80
2023/06/29 14:02:27;;;;;;;6.30;4.20;;;;;;;;;;7300523;19;140651;-79
2023/06/29 14:05:09;;;;;;;7.93;4.43;;;;;;;;;;7300877;19;141449;-79
2023/06/29 14:08:07;;;;;;;6.10;4.00;;;;;;;;;;7301365;19;140915;-80
2023/06/29 14:10:37;;;;;;;5.32;3.72;;;;;;;;;;7300410;19;140519;-81
2023/06/29 14:13:05;;;;;;;6.65;4.28;;;;;;;;;;7304272;19;140464;-80
2023/06/29 14:15:36;;;;;;;8.60;4.75;;;;;;;;;;7300295;19;141974;-80
2023/06/29 14:18:06;;;;;;;8.00;4.78;;;;;;;;;;7301875;19;141979;-80
2023/06/29 14:20:33;;;;;;;6.85;4.38;;;;;;;;;;7302928;19;140667;-80
2023/06/29 14:23:01;;;;;;;6.85;4.03;;;;;;;;;;7319865;19;140633;-80
2023/06/29 14:25:28;;;;;;;7.50;4.35;;;;;;;;;;7306001;19;141349;-80
2023/06/29 14:27:59;;;;;;;6.43;4.22;;;;;;;;;;7306095;19;140924;-80
2023/06/29 14:30:47;;;;;;;5.57;3.83;;;;;;;;;;7297767;19;140891;-80
2023/06/29 14:33:18;;;;;;;7.20;4.25;;;;;;;;;;7304900;19;140556;-81
2023/06/29 14:36:06;;;;;;;8.70;5.32;;;;;;;;;;7305670;19;140797;-80
2023/06/29 14:38:53;;;;;;;5.65;4.65;;;;;;;;;;7305976;19;142141;-79
2023/06/29 14:41:58;;;;;;;5.43;3.85;;;;;;;;;;7301337;19;143377;-80
2023/06/29 14:45:13;;;;;;;6.80;4.68;;;;;;;;;;7307310;19;141004;-76
2023/06/29 14:49:18;;;;;;;9.45;5.30;;;;;;;;;;7309664;19;144706;-78
2023/06/29 14:52:23;;;;;;;7.65;5.50;;;;;;;;;;7309834;19;140883;-78
2023/06/29 14:54:51;;;;;;;8.40;4.95;;;;;;;;;;7305128;19;142540;-78
2023/06/29 14:57:18;;;;;;;7.50;4.97;;;;;;;;;;7308168;19;141143;-77
2023/06/29 14:59:57;;;;;;;7.70;5.10;;;;;;;;;;7313437;19;140464;-78
2023/06/29 15:02:25;;;;;;;6.47;4.43;;;;;;;;;;7307197;19;140967;-76
2023/06/29 15:04:53;;;;;;;7.65;5.00;;;;;;;;;;7308195;19;140970;-78
2023/06/29 15:07:21;;;;;;;6.97;4.72;;;;;;;;;;7309040;19;140573;-81
2023/06/29 15:09:49;;;;;;;8.60;5.30;;;;;;;;;;7306615;19;142576;-79
2023/06/29 15:12:32;;;;;;;6.10;4.53;;;;;;;;;;7305742;19;144395;-79
2023/06/29 15:15:19;;;;;;;9.55;5.43;;;;;;;;;;7317198;19;141003;-78
2023/06/29 15:17:47;;;;;;;7.93;5.22;;;;;;;;;;7306230;19;140760;-76
2023/06/29 15:20:15;;;;;;;7.22;5.00;;;;;;;;;;7305744;19;141227;-77
2023/06/29 15:22:45;;;;;;;9.45;5.18;;;;;;;;;;7310665;19;141832;-79
2023/06/29 15:28:47;;;;;;;7.78;5.53;;;;;;;;;;7302561;19;140851;-79
2023/06/29 15:31:15;;;;;;;7.05;5.18;;;;;;;;;;7305006;19;141445;-79
2023/06/29 15:33:42;;;;;;;7.07;5.15;;;;;;;;;;7306158;19;141347;-79
2023/06/29 15:36:10;;;;;;;8.38;5.03;;;;;;;;;;7307368;19;140484;-79
2023/06/29 15:38:37;;;;;;;7.65;5.05;;;;;;;;;;7304704;19;141207;-79